createdAt,value
2023-05-10T00:00:23.648Z,580.00
2023-05-10T00:01:23.689Z,583.00
2023-05-10T00:02:23.835Z,587.00
2023-05-10T00:03:23.819Z,586.00
2023-05-10T00:04:23.706Z,579.00
2023-05-10T00:05:23.727Z,584.00
2023-05-10T00:06:23.711Z,575.00
2023-05-10T00:07:23.800Z,580.00
2023-05-10T00:08:23.730Z,586.00
2023-05-10T00:09:23.753Z,583.00
2023-05-10T00:10:23.737Z,577.00
2023-05-10T00:11:23.760Z,584.00
2023-05-10T00:12:23.735Z,583.00
2023-05-10T00:13:23.818Z,581.00
2023-05-10T00:14:23.751Z,579.00
2023-05-10T00:15:23.784Z,584.00
2023-05-10T00:16:23.754Z,579.00
2023-05-10T00:17:23.896Z,581.00
2023-05-10T00:18:23.785Z,583.00
2023-05-10T00:19:23.818Z,583.00
2023-05-10T00:20:23.808Z,579.00
2023-05-10T00:21:23.827Z,580.00
2023-05-10T00:22:23.818Z,579.00
2023-05-10T00:23:23.848Z,580.00
2023-05-10T00:24:23.832Z,578.00
2023-05-10T00:25:23.850Z,582.00
2023-05-10T00:26:23.854Z,579.00
2023-05-10T00:27:23.873Z,580.00
2023-05-10T00:28:23.884Z,580.00
2023-05-10T00:29:23.909Z,580.00
2023-05-10T00:30:23.899Z,577.00
2023-05-10T00:31:23.970Z,580.00
2023-05-10T00:32:24.000Z,583.00
2023-05-10T00:33:23.925Z,577.00
2023-05-10T00:34:23.942Z,579.00
2023-05-10T00:35:23.938Z,583.00
2023-05-10T00:36:23.953Z,579.00
2023-05-10T00:37:23.948Z,581.00
2023-05-10T00:38:23.954Z,576.00
2023-05-10T00:39:23.973Z,582.00
2023-05-10T00:40:24.007Z,581.00
2023-05-10T00:41:23.988Z,576.00
2023-05-10T00:42:24.031Z,582.00
2023-05-10T00:43:24.005Z,581.00
2023-05-10T00:44:24.034Z,578.00
2023-05-10T00:45:24.044Z,578.00
2023-05-10T00:46:24.075Z,574.00
2023-05-10T00:47:24.080Z,580.00
2023-05-10T00:48:24.053Z,575.00
2023-05-10T00:49:24.056Z,577.00
2023-05-10T00:50:24.068Z,580.00
2023-05-10T00:51:24.072Z,578.00
2023-05-10T00:52:24.093Z,581.00
2023-05-10T00:53:24.107Z,576.00
2023-05-10T00:54:24.107Z,570.00
2023-05-10T00:55:24.117Z,572.00
2023-05-10T00:56:24.120Z,581.00
2023-05-10T00:57:24.124Z,574.00
2023-05-10T00:58:24.144Z,574.00
2023-05-10T00:59:24.159Z,578.00
2023-05-10T01:00:24.157Z,572.00
2023-05-10T01:01:24.197Z,572.00
2023-05-10T01:02:24.266Z,572.00
2023-05-10T01:03:24.256Z,570.00
2023-05-10T01:04:24.255Z,577.00
2023-05-10T01:05:24.339Z,574.00
2023-05-10T01:06:24.256Z,573.00
2023-05-10T01:07:24.272Z,576.00
2023-05-10T01:08:24.270Z,575.00
2023-05-10T01:09:24.293Z,570.00
2023-05-10T01:10:24.312Z,568.00
2023-05-10T01:11:24.361Z,574.00
2023-05-10T01:12:24.359Z,571.00
2023-05-10T01:13:24.478Z,576.00
2023-05-10T01:14:24.370Z,563.00
2023-05-10T01:15:24.392Z,571.00
2023-05-10T01:16:24.409Z,568.00
2023-05-10T01:17:24.420Z,571.00
2023-05-10T01:18:24.427Z,572.00
2023-05-10T01:19:24.442Z,576.00
2023-05-10T01:20:24.461Z,566.00
2023-05-10T01:21:24.465Z,570.00
2023-05-10T01:22:24.524Z,568.00
2023-05-10T01:23:24.494Z,566.00
2023-05-10T01:24:24.558Z,568.00
2023-05-10T01:25:24.538Z,570.00
2023-05-10T01:26:24.564Z,570.00
2023-05-10T01:27:24.572Z,564.00
2023-05-10T01:28:24.599Z,571.00
2023-05-10T01:29:24.578Z,568.00
2023-05-10T01:30:24.827Z,570.00
2023-05-10T01:31:24.677Z,562.00
2023-05-10T01:32:24.652Z,567.00
2023-05-10T01:33:24.656Z,565.00
2023-05-10T01:34:24.683Z,564.00
2023-05-10T01:35:24.679Z,566.00
2023-05-10T01:36:24.684Z,565.00
2023-05-10T01:37:24.697Z,561.00
2023-05-10T01:38:24.714Z,566.00
2023-05-10T01:39:24.721Z,566.00
2023-05-10T01:40:24.734Z,559.00
2023-05-10T01:41:24.756Z,563.00
2023-05-10T01:42:24.757Z,564.00
2023-05-10T01:43:24.789Z,564.00
2023-05-10T01:44:24.801Z,567.00
2023-05-10T01:45:24.823Z,566.00
2023-05-10T01:46:24.841Z,568.00
2023-05-10T01:47:24.955Z,566.00
2023-05-10T01:48:24.845Z,558.00
2023-05-10T01:49:24.884Z,556.00
2023-05-10T01:50:24.874Z,558.00
2023-05-10T01:51:24.888Z,564.00
2023-05-10T01:52:24.886Z,561.00
2023-05-10T01:53:24.904Z,559.00
2023-05-10T01:54:24.915Z,560.00
2023-05-10T01:55:24.937Z,561.00
2023-05-10T01:56:25.078Z,559.00
2023-05-10T01:57:24.959Z,561.00
2023-05-10T01:58:24.960Z,550.00
2023-05-10T01:59:24.993Z,563.00
2023-05-10T02:00:25.002Z,557.00
2023-05-10T02:01:25.014Z,562.00
2023-05-10T02:02:25.066Z,561.00
2023-05-10T02:03:25.061Z,558.00
2023-05-10T02:04:25.047Z,557.00
2023-05-10T02:05:25.049Z,559.00
2023-05-10T02:06:25.079Z,559.00
2023-05-10T02:07:25.068Z,556.00
2023-05-10T02:08:25.112Z,558.00
2023-05-10T02:09:25.078Z,553.00
2023-05-10T02:10:25.096Z,554.00
2023-05-10T02:11:25.064Z,557.00
2023-05-10T02:12:25.102Z,552.00
2023-05-10T02:13:25.183Z,550.00
2023-05-10T02:14:25.107Z,557.00
2023-05-10T02:15:25.109Z,551.00
2023-05-10T02:16:25.153Z,554.00
2023-05-10T02:17:25.151Z,549.00
2023-05-10T02:18:25.147Z,550.00
2023-05-10T02:19:25.165Z,550.00
2023-05-10T02:20:25.188Z,554.00
2023-05-10T02:21:25.178Z,551.00
2023-05-10T02:22:25.206Z,554.00
2023-05-10T02:23:25.220Z,551.00
2023-05-10T02:24:25.246Z,554.00
2023-05-10T02:25:25.247Z,552.00
2023-05-10T02:26:25.253Z,561.00
2023-05-10T02:27:25.258Z,559.00
2023-05-10T02:28:25.275Z,549.00
2023-05-10T02:29:25.286Z,552.00
2023-05-10T02:30:25.278Z,553.00
2023-05-10T02:31:25.323Z,549.00
2023-05-10T02:32:25.324Z,547.00
2023-05-10T02:33:25.315Z,549.00
2023-05-10T02:34:25.402Z,549.00
2023-05-10T02:35:25.316Z,554.00
2023-05-10T02:36:25.329Z,554.00
2023-05-10T02:37:25.328Z,549.00
2023-05-10T02:38:25.332Z,545.00
2023-05-10T02:39:25.363Z,547.00
2023-05-10T02:40:27.988Z,546.00
2023-05-10T02:41:25.326Z,554.00
2023-05-10T02:42:25.264Z,549.00
2023-05-10T02:43:25.257Z,550.00
2023-05-10T02:44:25.186Z,547.00
2023-05-10T02:45:25.150Z,550.00
2023-05-10T02:46:25.175Z,554.00
2023-05-10T02:47:25.075Z,554.00
2023-05-10T02:48:25.028Z,550.00
2023-05-10T02:49:25.303Z,548.00
2023-05-10T02:50:24.922Z,551.00
2023-05-10T02:51:24.882Z,547.00
2023-05-10T02:52:24.843Z,545.00
2023-05-10T02:53:24.822Z,547.00
2023-05-10T02:54:24.755Z,543.00
2023-05-10T02:55:24.704Z,543.00
2023-05-10T02:56:24.667Z,544.00
2023-05-10T02:57:24.631Z,543.00
2023-05-10T02:58:24.591Z,546.00
2023-05-10T02:59:24.570Z,548.00
2023-05-10T03:00:24.533Z,548.00
2023-05-10T03:01:24.483Z,540.00
2023-05-10T03:02:24.454Z,546.00
2023-05-10T03:03:24.401Z,547.00
2023-05-10T03:04:24.380Z,544.00
2023-05-10T03:05:24.343Z,550.00
2023-05-10T03:06:24.285Z,544.00
2023-05-10T03:07:24.241Z,538.00
2023-05-10T03:08:24.201Z,546.00
2023-05-10T03:09:24.186Z,536.00
2023-05-10T03:10:24.116Z,539.00
2023-05-10T03:11:24.077Z,546.00
2023-05-10T03:12:24.036Z,543.00
2023-05-10T03:13:24.092Z,546.00
2023-05-10T03:14:23.952Z,544.00
2023-05-10T03:15:23.908Z,542.00
2023-05-10T03:16:23.936Z,540.00
2023-05-10T03:17:23.864Z,538.00
2023-05-10T03:18:23.778Z,536.00
2023-05-10T03:19:23.726Z,540.00
2023-05-10T03:20:23.695Z,542.00
2023-05-10T03:21:23.673Z,543.00
2023-05-10T03:22:23.692Z,536.00
2023-05-10T03:23:23.699Z,540.00
2023-05-10T03:24:23.692Z,543.00
2023-05-10T03:25:23.688Z,541.00
2023-05-10T03:26:23.681Z,540.00
2023-05-10T03:27:23.657Z,543.00
2023-05-10T03:28:23.658Z,541.00
2023-05-10T03:29:23.685Z,535.00
2023-05-10T03:30:23.679Z,534.00
2023-05-10T03:31:23.729Z,541.00
2023-05-10T03:32:23.685Z,536.00
2023-05-10T03:33:23.685Z,543.00
2023-05-10T03:34:23.684Z,543.00
2023-05-10T03:35:23.684Z,536.00
2023-05-10T03:36:23.684Z,535.00
2023-05-10T03:37:23.724Z,533.00
2023-05-10T03:38:23.695Z,544.00
2023-05-10T03:39:23.704Z,537.00
2023-05-10T03:40:23.706Z,540.00
2023-05-10T03:41:23.706Z,543.00
2023-05-10T03:42:23.717Z,539.00
2023-05-10T03:43:23.742Z,537.00
2023-05-10T03:44:23.743Z,535.00
2023-05-10T03:45:23.726Z,540.00
2023-05-10T03:46:23.766Z,535.00
2023-05-10T03:47:23.722Z,527.00
2023-05-10T03:48:23.722Z,539.00
2023-05-10T03:49:23.760Z,528.00
2023-05-10T03:50:23.769Z,531.00
2023-05-10T03:51:23.798Z,531.00
2023-05-10T03:52:23.820Z,534.00
2023-05-10T03:53:23.800Z,537.00
2023-05-10T03:54:23.817Z,531.00
2023-05-10T03:55:23.840Z,529.00
2023-05-10T03:56:23.807Z,533.00
2023-05-10T03:57:23.838Z,527.00
2023-05-10T03:58:23.839Z,527.00
2023-05-10T03:59:23.859Z,524.00
2023-05-10T04:00:23.835Z,531.00
2023-05-10T04:01:23.874Z,533.00
2023-05-10T04:02:23.913Z,531.00
2023-05-10T04:03:23.961Z,532.00
2023-05-10T04:04:23.861Z,534.00
2023-05-10T04:05:23.893Z,540.00
2023-05-10T04:06:23.909Z,534.00
2023-05-10T04:07:23.942Z,531.00
2023-05-10T04:08:23.920Z,530.00
2023-05-10T04:09:23.966Z,529.00
2023-05-10T04:10:23.945Z,530.00
2023-05-10T04:11:24.019Z,528.00
2023-05-10T04:12:23.942Z,531.00
2023-05-10T04:13:24.029Z,532.00
2023-05-10T04:14:23.962Z,532.00
2023-05-10T04:15:23.958Z,523.00
2023-05-10T04:16:23.981Z,525.00
2023-05-10T04:17:23.978Z,526.00
2023-05-10T04:18:23.952Z,527.00
2023-05-10T04:19:24.245Z,531.00
2023-05-10T04:20:23.967Z,524.00
2023-05-10T04:21:23.969Z,528.00
2023-05-10T04:22:23.991Z,527.00
2023-05-10T04:23:23.982Z,526.00
2023-05-10T04:24:23.987Z,532.00
2023-05-10T04:25:23.977Z,530.00
2023-05-10T04:26:23.981Z,526.00
2023-05-10T04:27:23.982Z,526.00
2023-05-10T04:28:23.979Z,528.00
2023-05-10T04:29:23.981Z,525.00
2023-05-10T04:30:23.967Z,533.00
2023-05-10T04:31:24.035Z,530.00
2023-05-10T04:32:23.973Z,526.00
2023-05-10T04:33:23.958Z,525.00
2023-05-10T04:34:23.952Z,519.00
2023-05-10T04:35:23.946Z,517.00
2023-05-10T04:36:23.944Z,530.00
2023-05-10T04:37:23.976Z,524.00
2023-05-10T04:38:23.923Z,528.00
2023-05-10T04:39:23.923Z,525.00
2023-05-10T04:40:23.939Z,527.00
2023-05-10T04:41:23.923Z,523.00
2023-05-10T04:42:23.932Z,526.00
2023-05-10T04:43:23.908Z,527.00
2023-05-10T04:44:23.944Z,523.00
2023-05-10T04:45:23.917Z,530.00
2023-05-10T04:46:23.952Z,521.00
2023-05-10T04:47:23.985Z,527.00
2023-05-10T04:48:23.960Z,526.00
2023-05-10T04:49:23.940Z,523.00
2023-05-10T04:50:23.968Z,523.00
2023-05-10T04:51:23.980Z,524.00
2023-05-10T04:52:23.965Z,526.00
2023-05-10T04:53:24.021Z,526.00
2023-05-10T04:54:23.986Z,522.00
2023-05-10T04:55:24.355Z,526.00
2023-05-10T04:56:24.027Z,519.00
2023-05-10T04:57:24.043Z,526.00
2023-05-10T04:58:24.075Z,521.00
2023-05-10T04:59:24.091Z,521.00
2023-05-10T05:00:24.122Z,522.00
2023-05-10T05:01:24.200Z,522.00
2023-05-10T05:02:24.197Z,525.00
2023-05-10T05:03:24.355Z,521.00
2023-05-10T05:04:24.161Z,525.00
2023-05-10T05:05:24.291Z,525.00
2023-05-10T05:06:24.164Z,525.00
2023-05-10T05:07:24.175Z,528.00
2023-05-10T05:08:24.154Z,528.00
2023-05-10T05:09:24.162Z,521.00
2023-05-10T05:10:24.161Z,525.00
2023-05-10T05:11:24.184Z,519.00
2023-05-10T05:12:24.171Z,520.00
2023-05-10T05:13:24.240Z,521.00
2023-05-10T05:14:24.170Z,526.00
2023-05-10T05:15:24.166Z,516.00
2023-05-10T05:16:24.203Z,522.00
2023-05-10T05:17:24.179Z,525.00
2023-05-10T05:18:24.180Z,536.00
2023-05-10T05:19:24.203Z,570.00
2023-05-10T05:20:24.189Z,600.00
2023-05-10T05:21:24.260Z,609.00
2023-05-10T05:22:24.182Z,611.00
2023-05-10T05:23:24.216Z,598.00
2023-05-10T05:24:24.167Z,592.00
2023-05-10T05:25:24.201Z,584.00
2023-05-10T05:26:24.205Z,591.00
2023-05-10T05:27:24.200Z,595.00
2023-05-10T05:28:25.386Z,595.00
2023-05-10T05:29:24.201Z,597.00
2023-05-10T05:30:25.021Z,600.00
2023-05-10T05:31:24.054Z,612.00
2023-05-10T05:32:24.153Z,643.00
2023-05-10T05:33:23.929Z,658.00
2023-05-10T05:34:23.877Z,719.00
2023-05-10T05:35:24.621Z,803.00
2023-05-10T05:36:23.769Z,819.00
2023-05-10T05:37:23.910Z,861.00
2023-05-10T05:38:23.674Z,889.00
2023-05-10T05:39:23.683Z,947.00
2023-05-10T05:40:23.866Z,983.00
2023-05-10T05:41:24.378Z,1031.00
2023-05-10T05:42:23.597Z,1062.00
2023-05-10T05:43:23.633Z,1103.00
2023-05-10T05:44:23.550Z,1133.00
2023-05-10T05:45:23.551Z,1170.00
2023-05-10T05:46:23.579Z,1204.00
2023-05-10T05:47:23.663Z,1216.00
2023-05-10T05:48:23.458Z,1232.00
2023-05-10T05:49:23.581Z,1262.00
2023-05-10T05:50:23.404Z,1272.00
2023-05-10T05:51:23.425Z,1283.00
2023-05-10T05:52:23.366Z,1292.00
2023-05-10T05:53:23.464Z,1306.00
2023-05-10T05:54:23.272Z,1321.00
2023-05-10T05:55:23.414Z,1325.00
2023-05-10T05:56:23.246Z,1349.00
2023-05-10T05:57:23.233Z,1371.00
2023-05-10T05:58:23.188Z,1380.00
2023-05-10T05:59:23.205Z,1387.00
2023-05-10T06:00:23.107Z,1407.00
2023-05-10T06:01:23.110Z,1403.00
2023-05-10T06:02:23.119Z,1422.00
2023-05-10T06:03:23.140Z,1431.00
2023-05-10T06:04:23.164Z,1453.00
2023-05-10T06:05:23.081Z,1472.00
2023-05-10T06:06:23.040Z,1490.00
2023-05-10T06:07:23.019Z,1534.00
2023-05-10T06:08:22.884Z,1548.00
2023-05-10T06:09:22.841Z,1549.00
2023-05-10T06:10:22.799Z,1563.00
2023-05-10T06:11:22.802Z,1585.00
2023-05-10T06:12:22.703Z,1592.00
2023-05-10T06:13:22.751Z,1574.00
2023-05-10T06:14:22.646Z,1574.00
2023-05-10T06:15:22.624Z,1599.00
2023-05-10T06:16:22.595Z,1602.00
2023-05-10T06:17:22.541Z,1602.00
2023-05-10T06:18:22.477Z,1613.00
2023-05-10T06:19:22.451Z,1620.00
2023-05-10T06:20:22.619Z,1635.00
2023-05-10T06:21:22.365Z,1624.00
2023-05-10T06:22:22.303Z,1635.00
2023-05-10T06:23:22.270Z,1576.00
2023-05-10T06:24:22.221Z,1444.00
2023-05-10T06:25:22.217Z,1371.00
2023-05-10T06:26:22.171Z,1264.00
2023-05-10T06:27:22.259Z,1146.00
2023-05-10T06:28:22.132Z,833.00
2023-05-10T06:29:22.171Z,643.00
2023-05-10T06:30:22.113Z,546.00
2023-05-10T06:31:22.190Z,497.00
2023-05-10T06:32:22.305Z,501.00
2023-05-10T06:33:22.167Z,500.00
2023-05-10T06:34:22.148Z,500.00
2023-05-10T06:35:22.163Z,502.00
2023-05-10T06:36:22.156Z,498.00
2023-05-10T06:37:22.250Z,500.00
2023-05-10T06:38:22.304Z,500.00
2023-05-10T06:39:22.192Z,504.00
2023-05-10T06:40:22.324Z,516.00
2023-05-10T06:41:24.555Z,514.00
2023-05-10T06:42:22.216Z,517.00
2023-05-10T06:43:22.104Z,535.00
2023-05-10T06:44:22.076Z,551.00
2023-05-10T06:45:22.362Z,551.00
2023-05-10T06:46:22.030Z,555.00
2023-05-10T06:47:21.948Z,569.00
2023-05-10T06:48:21.931Z,598.00
2023-05-10T06:49:21.854Z,640.00
2023-05-10T06:50:21.920Z,663.00
2023-05-10T06:51:21.773Z,688.00
2023-05-10T06:52:22.403Z,732.00
2023-05-10T06:53:21.675Z,737.00
2023-05-10T06:54:21.618Z,662.00
2023-05-10T06:55:21.674Z,573.00
2023-05-10T06:56:21.536Z,512.00
2023-05-10T06:57:31.107Z,500.00
2023-05-10T06:58:22.490Z,492.00
2023-05-10T06:59:21.544Z,454.00
2023-05-10T07:00:21.689Z,466.00
2023-05-10T07:01:21.459Z,457.00
2023-05-10T07:02:21.449Z,466.00
2023-05-10T07:03:21.385Z,505.00
2023-05-10T07:04:21.406Z,503.00
2023-05-10T07:05:21.512Z,514.00
2023-05-10T07:06:32.204Z,518.00
2023-05-10T07:07:22.211Z,518.00
2023-05-10T07:08:21.164Z,519.00
2023-05-10T07:09:21.178Z,520.00
2023-05-10T07:10:21.164Z,518.00
2023-05-10T07:11:21.076Z,516.00
2023-05-10T07:12:21.210Z,525.00
2023-05-10T07:13:21.099Z,505.00
2023-05-10T07:14:20.960Z,510.00
2023-05-10T07:15:20.932Z,500.00
2023-05-10T07:16:20.988Z,506.00
2023-05-10T07:17:20.983Z,515.00
2023-05-10T07:18:20.858Z,508.00
2023-05-10T07:19:20.806Z,537.00
2023-05-10T07:20:20.752Z,532.00
2023-05-10T07:21:20.752Z,560.00
2023-05-10T07:22:20.683Z,570.00
2023-05-10T07:23:20.720Z,581.00
2023-05-10T07:24:20.706Z,597.00
2023-05-10T07:25:20.717Z,602.00
2023-05-10T07:26:20.712Z,613.00
2023-05-10T07:27:20.723Z,611.00
2023-05-10T07:28:20.719Z,613.00
2023-05-10T07:29:20.724Z,623.00
2023-05-10T07:30:20.789Z,613.00
2023-05-10T07:31:20.735Z,617.00
2023-05-10T07:32:20.771Z,617.00
2023-05-10T07:33:20.803Z,618.00
2023-05-10T07:34:20.789Z,611.00
2023-05-10T07:35:20.761Z,608.00
2023-05-10T07:36:20.841Z,616.00
2023-05-10T07:37:20.839Z,621.00
2023-05-10T07:38:20.814Z,631.00
2023-05-10T07:39:26.629Z,633.00
2023-05-10T07:40:21.763Z,633.00
2023-05-10T07:41:20.695Z,633.00
2023-05-10T07:42:20.677Z,638.00
2023-05-10T07:43:20.604Z,645.00
2023-05-10T07:44:20.576Z,660.00
2023-05-10T07:45:20.510Z,673.00
2023-05-10T07:46:20.565Z,672.00
2023-05-10T07:47:20.438Z,664.00
2023-05-10T07:48:20.403Z,642.00
2023-05-10T07:49:20.328Z,644.00
2023-05-10T07:50:20.341Z,645.00
2023-05-10T07:51:20.312Z,645.00
2023-05-10T07:52:22.444Z,645.00
2023-05-10T07:53:20.310Z,641.00
2023-05-10T07:54:20.326Z,633.00
2023-05-10T07:55:20.315Z,635.00
2023-05-10T07:56:20.318Z,634.00
2023-05-10T07:57:20.320Z,617.00
2023-05-10T07:58:20.306Z,617.00
2023-05-10T07:59:20.299Z,619.00
2023-05-10T08:00:20.315Z,620.00
2023-05-10T08:01:20.310Z,624.00
2023-05-10T08:02:20.335Z,625.00
2023-05-10T08:03:20.505Z,599.00
2023-05-10T08:04:20.357Z,572.00
2023-05-10T08:05:20.328Z,550.00
2023-05-10T08:06:20.304Z,521.00
2023-05-10T08:07:20.322Z,509.00
2023-05-10T08:08:20.316Z,500.00
2023-05-10T08:09:20.336Z,502.00
2023-05-10T08:10:20.340Z,500.00
2023-05-10T08:11:20.312Z,502.00
2023-05-10T08:12:20.285Z,516.00
2023-05-10T08:13:20.285Z,530.00
2023-05-10T08:14:20.302Z,531.00
2023-05-10T08:15:20.302Z,545.00
2023-05-10T08:16:20.327Z,533.00
2023-05-10T08:17:21.215Z,488.00
2023-05-10T08:18:22.047Z,491.00
2023-05-10T08:19:20.213Z,496.00
2023-05-10T08:20:20.237Z,498.00
2023-05-10T08:21:20.236Z,553.00
2023-05-10T08:22:20.336Z,599.00
2023-05-10T08:23:20.251Z,620.00
2023-05-10T08:24:20.255Z,608.00
2023-05-10T08:25:20.260Z,616.00
2023-05-10T08:26:20.220Z,626.00
2023-05-10T08:27:20.257Z,599.00
2023-05-10T08:28:20.963Z,638.00
2023-05-10T08:29:20.207Z,626.00
2023-05-10T08:30:20.202Z,663.00
2023-05-10T08:31:20.303Z,704.00
2023-05-10T08:32:20.214Z,750.00
2023-05-10T08:33:20.233Z,740.00
2023-05-10T08:34:20.215Z,831.00
2023-05-10T08:35:20.244Z,918.00
2023-05-10T08:36:20.201Z,920.00
2023-05-10T08:37:20.209Z,913.00
2023-05-10T08:38:20.204Z,972.00
2023-05-10T08:39:29.717Z,1036.00
2023-05-10T08:40:21.146Z,1038.00
2023-05-10T08:41:20.092Z,1037.00
2023-05-10T08:42:20.020Z,1040.00
2023-05-10T08:43:20.954Z,1063.00
2023-05-10T08:44:19.910Z,1062.00
2023-05-10T08:45:20.001Z,1075.00
2023-05-10T08:46:19.911Z,1026.00
2023-05-10T08:47:19.863Z,1124.00
2023-05-10T08:48:19.701Z,1207.00
2023-05-10T08:49:19.656Z,1241.00
2023-05-10T08:50:19.663Z,1284.00
2023-05-10T08:51:19.558Z,1292.00
2023-05-10T08:52:19.503Z,1303.00
2023-05-10T08:53:19.442Z,1339.00
2023-05-10T08:54:19.381Z,1369.00
2023-05-10T08:55:19.417Z,1322.00
2023-05-10T08:56:19.308Z,1263.00
2023-05-10T08:57:19.294Z,1291.00
2023-05-10T08:58:19.248Z,1331.00
2023-05-10T08:59:19.237Z,1370.00
2023-05-10T09:00:19.219Z,1403.00
2023-05-10T09:01:19.259Z,1359.00
2023-05-10T09:02:19.161Z,1379.00
2023-05-10T09:03:19.174Z,1366.00
2023-05-10T09:04:19.211Z,1412.00
2023-05-10T09:05:19.676Z,1431.00
2023-05-10T09:06:19.081Z,1443.00
2023-05-10T09:07:19.030Z,1391.00
2023-05-10T09:08:19.013Z,1415.00
2023-05-10T09:09:18.991Z,1456.00
2023-05-10T09:10:19.019Z,1493.00
2023-05-10T09:11:19.459Z,1474.00
2023-05-10T09:12:18.872Z,1486.00
2023-05-10T09:13:18.833Z,1486.00
2023-05-10T09:14:18.800Z,1515.00
2023-05-10T09:15:18.996Z,1529.00
2023-05-10T09:16:21.849Z,1489.00
2023-05-10T09:17:18.791Z,1493.00
2023-05-10T09:18:18.762Z,1353.00
2023-05-10T09:19:18.570Z,1379.00
2023-05-10T09:20:18.647Z,1399.00
2023-05-10T09:21:18.478Z,1450.00
2023-05-10T09:22:18.412Z,1506.00
2023-05-10T09:23:18.353Z,1572.00
2023-05-10T09:24:18.311Z,1634.00
2023-05-10T09:25:18.562Z,1627.00
2023-05-10T09:26:18.192Z,1648.00
2023-05-10T09:27:18.160Z,1673.00
2023-05-10T09:28:18.096Z,1704.00
2023-05-10T09:29:18.246Z,1718.00
2023-05-10T09:30:17.998Z,1739.00
2023-05-10T09:31:17.981Z,1760.00
2023-05-10T09:32:17.891Z,1768.00
2023-05-10T09:33:17.824Z,1780.00
2023-05-10T09:34:17.813Z,1770.00
2023-05-10T09:35:18.011Z,1787.00
2023-05-10T09:36:17.700Z,1782.00
2023-05-10T09:37:17.629Z,1785.00
2023-05-10T09:38:17.583Z,1774.00
2023-05-10T09:39:17.521Z,1759.00
2023-05-10T09:40:17.572Z,1756.00
2023-05-10T09:41:17.397Z,1733.00
2023-05-10T09:42:17.360Z,1738.00
2023-05-10T09:43:17.298Z,1738.00
2023-05-10T09:44:17.266Z,1738.00
2023-05-10T09:45:17.394Z,1729.00
2023-05-10T09:46:17.237Z,1714.00
2023-05-10T09:47:17.096Z,1712.00
2023-05-10T09:48:17.048Z,1724.00
2023-05-10T09:49:17.001Z,1745.00
2023-05-10T09:50:16.958Z,1729.00
2023-05-10T09:51:16.900Z,1737.00
2023-05-10T09:52:16.860Z,1727.00
2023-05-10T09:53:16.849Z,1738.00
2023-05-10T09:54:16.767Z,1715.00
2023-05-10T09:55:16.919Z,1720.00
2023-05-10T09:56:16.643Z,1720.00
2023-05-10T09:57:16.593Z,1714.00
2023-05-10T09:58:16.555Z,1707.00
2023-05-10T09:59:16.484Z,1704.00
2023-05-10T10:00:16.480Z,1709.00
2023-05-10T10:01:16.422Z,1725.00
2023-05-10T10:02:16.332Z,1711.00
2023-05-10T10:03:16.328Z,1708.00
2023-05-10T10:04:16.253Z,1709.00
2023-05-10T10:05:16.382Z,1720.00
2023-05-10T10:06:26.785Z,1719.00
2023-05-10T10:07:17.084Z,1720.00
2023-05-10T10:08:16.011Z,1720.00
2023-05-10T10:09:15.968Z,1714.00
2023-05-10T10:10:15.909Z,1723.00
2023-05-10T10:11:15.891Z,1719.00
2023-05-10T10:12:15.791Z,1718.00
2023-05-10T10:13:15.774Z,1706.00
2023-05-10T10:14:15.718Z,1710.00
2023-05-10T10:15:16.907Z,1714.00
2023-05-10T10:16:16.527Z,1722.00
2023-05-10T10:17:15.631Z,1723.00
2023-05-10T10:18:15.664Z,1724.00
2023-05-10T10:19:15.538Z,1710.00
2023-05-10T10:20:15.643Z,1710.00
2023-05-10T10:21:15.467Z,1709.00
2023-05-10T10:22:15.453Z,1704.00
2023-05-10T10:23:17.383Z,1718.00
2023-05-10T10:24:15.445Z,1702.00
2023-05-10T10:25:15.561Z,1696.00
2023-05-10T10:26:15.442Z,1706.00
2023-05-10T10:27:15.423Z,1693.00
2023-05-10T10:28:15.429Z,1708.00
2023-05-10T10:29:15.444Z,1712.00
2023-05-10T10:30:15.478Z,1712.00
2023-05-10T10:31:15.466Z,1692.00
2023-05-10T10:32:15.447Z,1718.00
2023-05-10T10:33:27.278Z,1688.00
2023-05-10T10:34:16.423Z,1689.00
2023-05-10T10:35:15.501Z,1692.00
2023-05-10T10:36:15.370Z,1692.00
2023-05-10T10:37:15.307Z,1698.00
2023-05-10T10:38:15.281Z,1698.00
2023-05-10T10:39:15.234Z,1702.00
2023-05-10T10:40:15.231Z,1700.00
2023-05-10T10:41:15.168Z,1717.00
2023-05-10T10:42:15.917Z,1700.00
2023-05-10T10:43:15.098Z,1698.00
2023-05-10T10:44:15.071Z,1699.00
2023-05-10T10:45:15.215Z,1693.00
2023-05-10T10:46:15.086Z,1695.00
2023-05-10T10:47:14.957Z,1691.00
2023-05-10T10:48:14.911Z,1697.00
2023-05-10T10:49:14.862Z,1681.00
2023-05-10T10:50:14.866Z,1676.00
2023-05-10T10:51:14.908Z,1706.00
2023-05-10T10:52:14.840Z,1692.00
2023-05-10T10:53:14.910Z,1686.00
2023-05-10T10:54:14.838Z,1678.00
2023-05-10T10:55:14.968Z,1682.00
2023-05-10T10:56:14.822Z,1687.00
2023-05-10T10:57:15.816Z,1688.00
2023-05-10T10:58:14.724Z,1687.00
2023-05-10T10:59:14.686Z,1692.00
2023-05-10T11:00:14.653Z,1671.00
2023-05-10T11:01:14.648Z,1685.00
2023-05-10T11:02:14.535Z,1677.00
2023-05-10T11:03:14.607Z,1688.00
2023-05-10T11:04:14.471Z,1682.00
2023-05-10T11:05:14.544Z,1684.00
2023-05-10T11:06:14.360Z,1684.00
2023-05-10T11:07:14.365Z,1666.00
2023-05-10T11:08:14.250Z,1678.00
2023-05-10T11:09:14.199Z,1671.00
2023-05-10T11:10:14.242Z,1668.00
2023-05-10T11:11:14.162Z,1670.00
2023-05-10T11:12:14.132Z,1673.00
2023-05-10T11:13:14.114Z,1670.00
2023-05-10T11:14:14.104Z,1667.00
2023-05-10T11:15:14.183Z,1664.00
2023-05-10T11:16:14.112Z,1660.00
2023-05-10T11:17:14.088Z,1687.00
2023-05-10T11:18:14.029Z,1681.00
2023-05-10T11:19:14.189Z,1666.00
2023-05-10T11:20:14.089Z,1666.00
2023-05-10T11:21:14.027Z,1668.00
2023-05-10T11:22:13.995Z,1668.00
2023-05-10T11:23:14.026Z,1672.00
2023-05-10T11:24:13.987Z,1655.00
2023-05-10T11:25:14.041Z,1658.00
2023-05-10T11:26:14.005Z,1659.00
2023-05-10T11:27:13.999Z,1659.00
2023-05-10T11:28:14.001Z,1664.00
2023-05-10T11:29:14.016Z,1656.00
2023-05-10T11:30:14.225Z,1661.00
2023-05-10T11:31:14.074Z,1656.00
2023-05-10T11:32:13.991Z,1648.00
2023-05-10T11:33:14.006Z,1632.00
2023-05-10T11:34:13.986Z,1647.00
2023-05-10T11:35:13.988Z,1639.00
2023-05-10T11:36:13.999Z,1626.00
2023-05-10T11:37:13.968Z,1642.00
2023-05-10T11:38:13.967Z,1633.00
2023-05-10T11:39:13.943Z,1620.00
2023-05-10T11:40:13.985Z,1631.00
2023-05-10T11:41:13.939Z,1639.00
2023-05-10T11:42:13.942Z,1634.00
2023-05-10T11:43:13.909Z,1645.00
2023-05-10T11:44:13.916Z,1634.00
2023-05-10T11:45:13.886Z,1616.00
2023-05-10T11:46:13.927Z,1634.00
2023-05-10T11:47:13.897Z,1634.00
2023-05-10T11:48:13.907Z,1623.00
2023-05-10T11:49:13.844Z,1624.00
2023-05-10T11:50:13.942Z,1600.00
2023-05-10T11:51:13.815Z,1616.00
2023-05-10T11:52:13.822Z,1614.00
2023-05-10T11:53:13.798Z,1611.00
2023-05-10T11:54:13.814Z,1610.00
2023-05-10T11:55:13.788Z,1598.00
2023-05-10T11:56:13.798Z,1599.00
2023-05-10T11:57:13.772Z,1602.00
2023-05-10T11:58:13.773Z,1594.00
2023-05-10T11:59:13.745Z,1589.00
2023-05-10T12:00:13.870Z,1605.00
2023-05-10T12:01:13.748Z,1591.00
2023-05-10T12:02:14.053Z,1579.00
2023-05-10T12:03:13.822Z,1585.00
2023-05-10T12:04:13.947Z,1576.00
2023-05-10T12:05:13.749Z,1569.00
2023-05-10T12:06:13.769Z,1576.00
2023-05-10T12:07:13.759Z,1573.00
2023-05-10T12:08:13.763Z,1564.00
2023-05-10T12:09:13.749Z,1548.00
2023-05-10T12:10:13.795Z,1561.00
2023-05-10T12:11:13.743Z,1561.00
2023-05-10T12:12:13.754Z,1561.00
2023-05-10T12:13:13.740Z,1545.00
2023-05-10T12:14:13.743Z,1555.00
2023-05-10T12:15:13.732Z,1558.00
2023-05-10T12:16:13.775Z,1541.00
2023-05-10T12:17:13.718Z,1554.00
2023-05-10T12:18:13.804Z,1554.00
2023-05-10T12:19:13.787Z,1556.00
2023-05-10T12:20:13.772Z,1555.00